PWSweather.com
Personal Weather Stations
Station Observations
BULSHOEK
ClanwilliamZA

ClanwilliamZA

Lat: -32.003, Lon: 18.782

Elevation: 213

Station Type: Davis Vantage Pro

High Low Average
Temperature 76.6°F24.8°C 59.6°F15.3°C 66.8°F19.3°C
Dew Point 58.2°F14.6°C 50.7°F10.4°C 54.6°F12.6°C
Winds 9.9 mph 15.9 kmh Calm Calm 3.0 mph SW4.8 kmh SW
Wind Gusts 23.0 mph37.0 kmh -- 9.0 mph14.5 kmh
Humidity 89% 44% 67%
Pressure 30.08 in1018.6 mb 29.91 in1012.9 mb -
Precipitation 0.00 in0.0 mm - -
Hour Temp Dew Point Humidity Winds Wind Gusts Pressure Precip Precip Rate Daily Precip Total
12:00 AM 62.0°F16.7°C 56.4°F13.6°C 82% 1.0 mph N1.6 kmh N 6.0 mph9.7 kmh 29.91 in1012.9 mb 0.00 in0.0 mm 0.00 in0.0 mm 0.00 in0.0 mm
12:05 AM 61.8°F16.6°C 56.2°F13.4°C 82% 0.4 mph N0.6 kmh N 6.0 mph9.7 kmh 29.91 in1012.9 mb 0.00 in0.0 mm 0.00 in0.0 mm 0.00 in0.0 mm
12:10 AM 61.7°F16.5°C 56.1°F13.4°C 82% 0.5 mph N0.8 kmh N 4.0 mph6.4 kmh 29.91 in1012.9 mb 0.00 in0.0 mm 0.00 in0.0 mm 0.00 in0.0 mm
12:15 AM 61.6°F16.4°C 56.0°F13.3°C 82% 0.3 mph NNW0.5 kmh NNW 5.0 mph8.0 kmh 29.91 in1012.9 mb 0.00 in0.0 mm 0.00 in0.0 mm 0.00 in0.0 mm
12:20 AM 61.5°F16.4°C 56.3°F13.5°C 83% 1.3 mph N2.1 kmh N 5.0 mph8.0 kmh 29.91 in1012.9 mb 0.00 in0.0 mm 0.00 in0.0 mm 0.00 in0.0 mm
12:25 AM 61.5°F16.4°C 56.3°F13.5°C 83% 0.7 mph N1.1 kmh N 7.0 mph11.3 kmh 29.91 in1012.9 mb 0.00 in0.0 mm 0.00 in0.0 mm 0.00 in0.0 mm
12:30 AM 61.4°F16.3°C 56.2°F13.4°C 83% 1.0 mph N1.6 kmh N 8.0 mph12.9 kmh 29.91 in1012.9 mb 0.00 in0.0 mm 0.00 in0.0 mm 0.00 in0.0 mm
12:35 AM 61.4°F16.3°C 56.5°F13.6°C 84% 1.1 mph NW1.8 kmh NW 8.0 mph12.9 kmh 29.91 in1012.9 mb 0.00 in0.0 mm 0.00 in0.0 mm 0.00 in0.0 mm
12:40 AM 61.3°F16.3°C 56.4°F13.6°C 84% 1.3 mph NW2.1 kmh NW 6.0 mph9.7 kmh 29.91 in1012.9 mb 0.00 in0.0 mm 0.00 in0.0 mm 0.00 in0.0 mm
12:45 AM 61.3°F16.3°C 56.4°F13.6°C 84% 0.7 mph NW1.1 kmh NW 6.0 mph9.7 kmh 29.93 in1013.5 mb 0.00 in0.0 mm 0.00 in0.0 mm 0.00 in0.0 mm
12:50 AM 61.4°F16.3°C 56.5°F13.6°C 84% 1.2 mph NW1.9 kmh NW 5.0 mph8.0 kmh 29.93 in1013.5 mb 0.00 in0.0 mm 0.00 in0.0 mm 0.00 in0.0 mm
12:55 AM 61.4°F16.3°C 56.5°F13.6°C 84% 0.8 mph NW1.3 kmh NW 6.0 mph9.7 kmh 29.93 in1013.5 mb 0.00 in0.0 mm 0.00 in0.0 mm 0.00 in0.0 mm
01:00 AM 61.3°F16.3°C 56.4°F13.6°C 84% 1.1 mph NW1.8 kmh NW 6.0 mph9.7 kmh 29.93 in1013.5 mb 0.00 in0.0 mm 0.00 in0.0 mm 0.00 in0.0 mm
01:05 AM 61.2°F16.2°C 56.3°F13.5°C 84% 1.4 mph NW2.3 kmh NW 5.0 mph8.0 kmh 29.93 in1013.5 mb 0.00 in0.0 mm 0.00 in0.0 mm 0.00 in0.0 mm
01:10 AM 61.2°F16.2°C 56.3°F13.5°C 84% 1.4 mph NW2.3 kmh NW 8.0 mph12.9 kmh 29.93 in1013.5 mb 0.00 in0.0 mm 0.00 in0.0 mm 0.00 in0.0 mm
01:15 AM 61.5°F16.4°C 56.9°F13.8°C 85% 2.0 mph WNW3.2 kmh WNW 8.0 mph12.9 kmh 29.93 in1013.5 mb 0.00 in0.0 mm 0.00 in0.0 mm 0.00 in0.0 mm
01:20 AM 61.6°F16.4°C 57.0°F13.9°C 85% 1.6 mph WNW2.6 kmh WNW 6.0 mph9.7 kmh 29.93 in1013.5 mb 0.00 in0.0 mm 0.00 in0.0 mm 0.00 in0.0 mm
01:25 AM 61.5°F16.4°C 56.9°F13.8°C 85% 1.7 mph WNW2.7 kmh WNW 5.0 mph8.0 kmh 29.93 in1013.5 mb 0.00 in0.0 mm 0.00 in0.0 mm 0.00 in0.0 mm
01:30 AM 61.3°F16.3°C 56.7°F13.7°C 85% 2.0 mph NW3.2 kmh NW 5.0 mph8.0 kmh 29.93 in1013.5 mb 0.00 in0.0 mm 0.00 in0.0 mm 0.00 in0.0 mm
01:35 AM 61.2°F16.2°C 56.7°F13.7°C 85% 1.6 mph NW2.6 kmh NW 5.0 mph8.0 kmh 29.93 in1013.5 mb 0.00 in0.0 mm 0.00 in0.0 mm 0.00 in0.0 mm
01:40 AM 61.0°F16.1°C 56.5°F13.6°C 85% 1.6 mph WNW2.6 kmh WNW 5.0 mph8.0 kmh 29.93 in1013.5 mb 0.00 in0.0 mm 0.00 in0.0 mm 0.00 in0.0 mm
01:45 AM 60.7°F15.9°C 56.2°F13.4°C 85% 1.0 mph NW1.6 kmh NW 5.0 mph8.0 kmh 29.93 in1013.5 mb 0.00 in0.0 mm 0.00 in0.0 mm 0.00 in0.0 mm
01:50 AM 60.5°F15.8°C 56.0°F13.3°C 85% 1.5 mph NNW2.4 kmh NNW 5.0 mph8.0 kmh 29.93 in1013.5 mb 0.00 in0.0 mm 0.00 in0.0 mm 0.00 in0.0 mm
01:55 AM 60.4°F15.8°C 56.2°F13.4°C 86% 1.1 mph NW1.8 kmh NW 6.0 mph9.7 kmh 29.93 in1013.5 mb 0.00 in0.0 mm 0.00 in0.0 mm 0.00 in0.0 mm
02:00 AM 60.3°F15.7°C 56.1°F13.4°C 86% 1.2 mph NW1.9 kmh NW 6.0 mph9.7 kmh 29.93 in1013.5 mb 0.00 in0.0 mm 0.00 in0.0 mm 0.00 in0.0 mm
02:05 AM 60.2°F15.7°C 56.0°F13.3°C 86% 0.8 mph NW1.3 kmh NW 6.0 mph9.7 kmh 29.93 in1013.5 mb 0.00 in0.0 mm 0.00 in0.0 mm 0.00 in0.0 mm
02:10 AM 60.1°F15.6°C 55.9°F13.3°C 86% 1.2 mph NNW1.9 kmh NNW 8.0 mph12.9 kmh 29.93 in1013.5 mb 0.00 in0.0 mm 0.00 in0.0 mm 0.00 in0.0 mm
02:15 AM 60.0°F15.6°C 56.1°F13.4°C 87% 1.3 mph NW2.1 kmh NW 8.0 mph12.9 kmh 29.93 in1013.5 mb 0.00 in0.0 mm 0.00 in0.0 mm 0.00 in0.0 mm
02:20 AM 59.9°F15.5°C 56.0°F13.3°C 87% 1.2 mph N1.9 kmh N 7.0 mph11.3 kmh 29.93 in1013.5 mb 0.00 in0.0 mm 0.00 in0.0 mm 0.00 in0.0 mm
02:25 AM 59.8°F15.4°C 55.9°F13.3°C 87% 1.2 mph N1.9 kmh N 7.0 mph11.3 kmh 29.93 in1013.5 mb 0.00 in0.0 mm 0.00 in0.0 mm 0.00 in0.0 mm
02:30 AM 59.7°F15.4°C 55.8°F13.2°C 87% 0.6 mph N1.0 kmh N 7.0 mph11.3 kmh 29.93 in1013.5 mb 0.00 in0.0 mm 0.00 in0.0 mm 0.00 in0.0 mm
02:35 AM 59.7°F15.4°C 55.8°F13.2°C 87% 1.6 mph N2.6 kmh N 6.0 mph9.7 kmh 29.93 in1013.5 mb 0.00 in0.0 mm 0.00 in0.0 mm 0.00 in0.0 mm
02:40 AM 59.8°F15.4°C 55.9°F13.3°C 87% 0.5 mph W0.8 kmh W 6.0 mph9.7 kmh 29.93 in1013.5 mb 0.00 in0.0 mm 0.00 in0.0 mm 0.00 in0.0 mm
02:45 AM 59.8°F15.4°C 56.2°F13.4°C 88% 1.4 mph NNW2.3 kmh NNW 6.0 mph9.7 kmh 29.93 in1013.5 mb 0.00 in0.0 mm 0.00 in0.0 mm 0.00 in0.0 mm
02:50 AM 59.9°F15.5°C 56.3°F13.5°C 88% 1.0 mph NW1.6 kmh NW 6.0 mph9.7 kmh 29.93 in1013.5 mb 0.00 in0.0 mm 0.00 in0.0 mm 0.00 in0.0 mm
02:55 AM 59.9°F15.5°C 56.3°F13.5°C 88% 1.5 mph NW2.4 kmh NW 6.0 mph9.7 kmh 29.93 in1013.5 mb 0.00 in0.0 mm 0.00 in0.0 mm 0.00 in0.0 mm
03:00 AM 59.9°F15.5°C 56.3°F13.5°C 88% 1.2 mph NW1.9 kmh NW 6.0 mph9.7 kmh 29.93 in1013.5 mb 0.00 in0.0 mm 0.00 in0.0 mm 0.00 in0.0 mm
03:05 AM 59.8°F15.4°C 56.2°F13.4°C 88% 0.5 mph NNW0.8 kmh NNW 5.0 mph8.0 kmh 29.93 in1013.5 mb 0.00 in0.0 mm 0.00 in0.0 mm 0.00 in0.0 mm
03:10 AM 59.8°F15.4°C 56.2°F13.4°C 88% 1.3 mph NW2.1 kmh NW 5.0 mph8.0 kmh 29.93 in1013.5 mb 0.00 in0.0 mm 0.00 in0.0 mm 0.00 in0.0 mm
03:15 AM 59.8°F15.4°C 56.2°F13.4°C 88% 1.1 mph WNW1.8 kmh WNW 6.0 mph9.7 kmh 29.93 in1013.5 mb 0.00 in0.0 mm 0.00 in0.0 mm 0.00 in0.0 mm
03:20 AM 59.8°F15.4°C 56.2°F13.4°C 88% 0.9 mph NW1.4 kmh NW 6.0 mph9.7 kmh 29.93 in1013.5 mb 0.00 in0.0 mm 0.00 in0.0 mm 0.00 in0.0 mm
03:25 AM 59.9°F15.5°C 56.3°F13.5°C 88% 1.1 mph W1.8 kmh W 5.0 mph8.0 kmh 29.93 in1013.5 mb 0.00 in0.0 mm 0.00 in0.0 mm 0.00 in0.0 mm
03:30 AM 60.0°F15.6°C 56.4°F13.6°C 88% 1.9 mph W3.1 kmh W 7.0 mph11.3 kmh 29.93 in1013.5 mb 0.00 in0.0 mm 0.00 in0.0 mm 0.00 in0.0 mm
03:35 AM 59.8°F15.4°C 56.2°F13.4°C 88% 2.1 mph WNW3.4 kmh WNW 8.0 mph12.9 kmh 29.93 in1013.5 mb 0.00 in0.0 mm 0.00 in0.0 mm 0.00 in0.0 mm
03:40 AM 59.7°F15.4°C 56.1°F13.4°C 88% 0.9 mph NW1.4 kmh NW 8.0 mph12.9 kmh 29.93 in1013.5 mb 0.00 in0.0 mm 0.00 in0.0 mm 0.00 in0.0 mm
03:45 AM 59.6°F15.3°C 56.0°F13.3°C 88% 1.0 mph NW1.6 kmh NW 5.0 mph8.0 kmh 29.94 in1013.9 mb 0.00 in0.0 mm 0.00 in0.0 mm 0.00 in0.0 mm
03:50 AM 59.6°F15.3°C 56.0°F13.3°C 88% 0.2 mph WNW0.3 kmh WNW 5.0 mph8.0 kmh 29.94 in1013.9 mb 0.00 in0.0 mm 0.00 in0.0 mm 0.00 in0.0 mm
03:55 AM 59.6°F15.3°C 56.0°F13.3°C 88% 0.1 mph W0.2 kmh W 3.0 mph4.8 kmh 29.94 in1013.9 mb 0.00 in0.0 mm 0.00 in0.0 mm 0.00 in0.0 mm
04:00 AM 59.8°F15.4°C 56.5°F13.6°C 89% 0.5 mph W0.8 kmh W 3.0 mph4.8 kmh 29.94 in1013.9 mb 0.00 in0.0 mm 0.00 in0.0 mm 0.00 in0.0 mm
04:10 AM 59.9°F15.5°C 56.3°F13.5°C 88% 0.3 mph W0.5 kmh W 5.0 mph8.0 kmh 29.94 in1013.9 mb 0.00 in0.0 mm 0.00 in0.0 mm 0.00 in0.0 mm
04:15 AM 60.1°F15.6°C 56.8°F13.8°C 89% 0.5 mph WNW0.8 kmh WNW 5.0 mph8.0 kmh 29.94 in1013.9 mb 0.00 in0.0 mm 0.00 in0.0 mm 0.00 in0.0 mm
04:20 AM 60.2°F15.7°C 56.9°F13.8°C 89% 0.3 mph W0.5 kmh W 3.0 mph4.8 kmh 29.94 in1013.9 mb 0.00 in0.0 mm 0.00 in0.0 mm 0.00 in0.0 mm
04:25 AM 60.2°F15.7°C 56.9°F13.8°C 89% 0.5 mph W0.8 kmh W 5.0 mph8.0 kmh 29.94 in1013.9 mb 0.00 in0.0 mm 0.00 in0.0 mm 0.00 in0.0 mm
04:30 AM 60.2°F15.7°C 56.9°F13.8°C 89% Calm Calm 5.0 mph8.0 kmh 29.94 in1013.9 mb 0.00 in0.0 mm 0.00 in0.0 mm 0.00 in0.0 mm
04:35 AM 60.1°F15.6°C 56.5°F13.6°C 88% 0.1 mph W0.2 kmh W 1.0 mph1.6 kmh 29.94 in1013.9 mb 0.00 in0.0 mm 0.00 in0.0 mm 0.00 in0.0 mm
04:40 AM 60.1°F15.6°C 56.8°F13.8°C 89% Calm Calm 1.0 mph1.6 kmh 29.94 in1013.9 mb 0.00 in0.0 mm 0.00 in0.0 mm 0.00 in0.0 mm
04:45 AM 59.9°F15.5°C 56.3°F13.5°C 88% Calm Calm -- 29.94 in1013.9 mb 0.00 in0.0 mm 0.00 in0.0 mm 0.00 in0.0 mm
04:50 AM 59.8°F15.4°C 56.2°F13.4°C 88% Calm Calm -- 29.94 in1013.9 mb 0.00 in0.0 mm 0.00 in0.0 mm 0.00 in0.0 mm
04:55 AM 59.9°F15.5°C 56.6°F13.7°C 89% Calm Calm -- 29.94 in1013.9 mb 0.00 in0.0 mm 0.00 in0.0 mm 0.00 in0.0 mm
05:00 AM 60.2°F15.7°C 56.9°F13.8°C 89% Calm Calm -- 29.96 in1014.6 mb 0.00 in0.0 mm 0.00 in0.0 mm 0.00 in0.0 mm
05:05 AM 60.3°F15.7°C 57.0°F13.9°C 89% 0.1 mph SW0.2 kmh SW 2.0 mph3.2 kmh 29.96 in1014.6 mb 0.00 in0.0 mm 0.00 in0.0 mm 0.00 in0.0 mm
05:10 AM 60.2°F15.7°C 56.9°F13.8°C 89% Calm Calm 2.0 mph3.2 kmh 29.96 in1014.6 mb 0.00 in0.0 mm 0.00 in0.0 mm 0.00 in0.0 mm
05:15 AM 60.2°F15.7°C 56.9°F13.8°C 89% 0.2 mph NE0.3 kmh NE 2.0 mph3.2 kmh 29.95 in1014.2 mb 0.00 in0.0 mm 0.00 in0.0 mm 0.00 in0.0 mm
05:20 AM 60.2°F15.7°C 56.6°F13.7°C 88% Calm Calm 2.0 mph3.2 kmh 29.95 in1014.2 mb 0.00 in0.0 mm 0.00 in0.0 mm 0.00 in0.0 mm
05:25 AM 60.3°F15.7°C 56.7°F13.7°C 88% Calm Calm 1.0 mph1.6 kmh 29.95 in1014.2 mb 0.00 in0.0 mm 0.00 in0.0 mm 0.00 in0.0 mm
05:30 AM 60.6°F15.9°C 57.0°F13.9°C 88% 0.5 mph W0.8 kmh W 3.0 mph4.8 kmh 29.95 in1014.2 mb 0.00 in0.0 mm 0.00 in0.0 mm 0.00 in0.0 mm
05:35 AM 60.7°F15.9°C 57.1°F13.9°C 88% 0.1 mph W0.2 kmh W 3.0 mph4.8 kmh 29.95 in1014.2 mb 0.00 in0.0 mm 0.00 in0.0 mm 0.00 in0.0 mm
05:40 AM 60.7°F15.9°C 57.1°F13.9°C 88% Calm Calm 2.0 mph3.2 kmh 29.95 in1014.2 mb 0.00 in0.0 mm 0.00 in0.0 mm 0.00 in0.0 mm
05:45 AM 60.8°F16.0°C 57.2°F14.0°C 88% 1.0 mph W1.6 kmh W 3.0 mph4.8 kmh 29.96 in1014.6 mb 0.00 in0.0 mm 0.00 in0.0 mm 0.00 in0.0 mm
05:50 AM 60.8°F16.0°C 57.2°F14.0°C 88% 1.1 mph W1.8 kmh W 3.0 mph4.8 kmh 29.96 in1014.6 mb 0.00 in0.0 mm 0.00 in0.0 mm 0.00 in0.0 mm
05:55 AM 61.1°F16.2°C 57.5°F14.2°C 88% 2.3 mph WSW3.7 kmh WSW 5.0 mph8.0 kmh 29.96 in1014.6 mb 0.00 in0.0 mm 0.00 in0.0 mm 0.00 in0.0 mm
06:00 AM 61.1°F16.2°C 57.5°F14.2°C 88% 0.8 mph WSW1.3 kmh WSW 5.0 mph8.0 kmh 29.97 in1014.9 mb 0.00 in0.0 mm 0.00 in0.0 mm 0.00 in0.0 mm
06:05 AM 61.1°F16.2°C 57.5°F14.2°C 88% 0.2 mph WSW0.3 kmh WSW 3.0 mph4.8 kmh 29.97 in1014.9 mb 0.00 in0.0 mm 0.00 in0.0 mm 0.00 in0.0 mm
06:10 AM 61.1°F16.2°C 57.5°F14.2°C 88% 0.5 mph W0.8 kmh W 5.0 mph8.0 kmh 29.97 in1014.9 mb 0.00 in0.0 mm 0.00 in0.0 mm 0.00 in0.0 mm
06:15 AM 61.2°F16.2°C 57.6°F14.2°C 88% 0.6 mph W1.0 kmh W 5.0 mph8.0 kmh 29.97 in1014.9 mb 0.00 in0.0 mm 0.00 in0.0 mm 0.00 in0.0 mm
06:20 AM 61.2°F16.2°C 57.6°F14.2°C 88% 0.7 mph W1.1 kmh W 5.0 mph8.0 kmh 29.97 in1014.9 mb 0.00 in0.0 mm 0.00 in0.0 mm 0.00 in0.0 mm
06:25 AM 61.2°F16.2°C 57.3°F14.1°C 87% Calm Calm 3.0 mph4.8 kmh 29.97 in1014.9 mb 0.00 in0.0 mm 0.00 in0.0 mm 0.00 in0.0 mm
06:30 AM 61.1°F16.2°C 57.2°F14.0°C 87% Calm Calm 1.0 mph1.6 kmh 29.97 in1014.9 mb 0.00 in0.0 mm 0.00 in0.0 mm 0.00 in0.0 mm
06:35 AM 61.1°F16.2°C 57.2°F14.0°C 87% Calm Calm 1.0 mph1.6 kmh 29.97 in1014.9 mb 0.00 in0.0 mm 0.00 in0.0 mm 0.00 in0.0 mm
06:40 AM 61.1°F16.2°C 57.2°F14.0°C 87% 1.2 mph S1.9 kmh S 8.0 mph12.9 kmh 29.97 in1014.9 mb 0.00 in0.0 mm 0.00 in0.0 mm 0.00 in0.0 mm
06:45 AM 61.4°F16.3°C 57.5°F14.2°C 87% 1.2 mph S1.9 kmh S 8.0 mph12.9 kmh 29.98 in1015.2 mb 0.00 in0.0 mm 0.00 in0.0 mm 0.00 in0.0 mm
06:50 AM 61.6°F16.4°C 57.7°F14.3°C 87% 0.9 mph S1.4 kmh S 5.0 mph8.0 kmh 29.98 in1015.2 mb 0.00 in0.0 mm 0.00 in0.0 mm 0.00 in0.0 mm
06:55 AM 61.6°F16.4°C 57.4°F14.1°C 86% 0.7 mph SSE1.1 kmh SSE 4.0 mph6.4 kmh 29.98 in1015.2 mb 0.00 in0.0 mm 0.00 in0.0 mm 0.00 in0.0 mm
07:00 AM 61.7°F16.5°C 57.5°F14.2°C 86% 1.3 mph S2.1 kmh S 4.0 mph6.4 kmh 29.99 in1015.6 mb 0.00 in0.0 mm 0.00 in0.0 mm 0.00 in0.0 mm
07:05 AM 61.7°F16.5°C 57.5°F14.2°C 86% 0.9 mph SSE1.4 kmh SSE 4.0 mph6.4 kmh 29.99 in1015.6 mb 0.00 in0.0 mm 0.00 in0.0 mm 0.00 in0.0 mm
07:10 AM 61.7°F16.5°C 57.5°F14.2°C 86% 0.4 mph SSE0.6 kmh SSE 4.0 mph6.4 kmh 29.99 in1015.6 mb 0.00 in0.0 mm 0.00 in0.0 mm 0.00 in0.0 mm
07:15 AM 61.7°F16.5°C 57.1°F13.9°C 85% 1.6 mph SE2.6 kmh SE 4.0 mph6.4 kmh 29.99 in1015.6 mb 0.00 in0.0 mm 0.00 in0.0 mm 0.00 in0.0 mm
07:20 AM 61.9°F16.6°C 57.3°F14.1°C 85% 1.7 mph SE2.7 kmh SE 4.0 mph6.4 kmh 29.99 in1015.6 mb 0.00 in0.0 mm 0.00 in0.0 mm 0.00 in0.0 mm
07:25 AM 62.1°F16.7°C 57.5°F14.2°C 85% 0.3 mph SE0.5 kmh SE 3.0 mph4.8 kmh 29.99 in1015.6 mb 0.00 in0.0 mm 0.00 in0.0 mm 0.00 in0.0 mm
07:30 AM 62.3°F16.8°C 57.7°F14.3°C 85% 0.1 mph SE0.2 kmh SE 3.0 mph4.8 kmh 30.00 in1015.9 mb 0.00 in0.0 mm 0.00 in0.0 mm 0.00 in0.0 mm
07:35 AM 62.4°F16.9°C 57.5°F14.2°C 84% 3.1 mph SE5.0 kmh SE 8.0 mph12.9 kmh 30.00 in1015.9 mb 0.00 in0.0 mm 0.00 in0.0 mm 0.00 in0.0 mm
07:40 AM 62.6°F17.0°C 57.7°F14.3°C 84% 0.4 mph W0.6 kmh W 8.0 mph12.9 kmh 30.00 in1015.9 mb 0.00 in0.0 mm 0.00 in0.0 mm 0.00 in0.0 mm
07:45 AM 62.7°F17.1°C 57.5°F14.2°C 83% Calm Calm 2.0 mph3.2 kmh 30.00 in1015.9 mb 0.00 in0.0 mm 0.00 in0.0 mm 0.00 in0.0 mm
07:50 AM 62.9°F17.2°C 57.7°F14.3°C 83% Calm Calm -- 30.00 in1015.9 mb 0.00 in0.0 mm 0.00 in0.0 mm 0.00 in0.0 mm
07:55 AM 63.0°F17.2°C 57.8°F14.3°C 83% 0.1 mph W0.2 kmh W 2.0 mph3.2 kmh 30.00 in1015.9 mb 0.00 in0.0 mm 0.00 in0.0 mm 0.00 in0.0 mm
08:00 AM 63.1°F17.3°C 57.8°F14.3°C 83% Calm Calm 2.0 mph3.2 kmh 30.00 in1015.9 mb 0.00 in0.0 mm 0.00 in0.0 mm 0.00 in0.0 mm
08:05 AM 63.3°F17.4°C 57.7°F14.3°C 82% 0.1 mph W0.2 kmh W 2.0 mph3.2 kmh 30.00 in1015.9 mb 0.00 in0.0 mm 0.00 in0.0 mm 0.00 in0.0 mm
08:10 AM 63.6°F17.6°C 58.0°F14.4°C 82% Calm Calm 2.0 mph3.2 kmh 30.00 in1015.9 mb 0.00 in0.0 mm 0.00 in0.0 mm 0.00 in0.0 mm
08:15 AM 63.8°F17.7°C 58.2°F14.6°C 82% Calm Calm -- 30.00 in1015.9 mb 0.00 in0.0 mm 0.00 in0.0 mm 0.00 in0.0 mm
08:20 AM 67.9°F19.9°C 56.5°F13.6°C 67% 2.0 mph WSW3.2 kmh WSW 6.0 mph9.7 kmh 30.02 in1016.6 mb 0.00 in0.0 mm 0.00 in0.0 mm 0.00 in0.0 mm
08:25 AM 68.6°F20.3°C 56.8°F13.8°C 66% 1.0 mph SW1.6 kmh SW 6.0 mph9.7 kmh 30.02 in1016.6 mb 0.00 in0.0 mm 0.00 in0.0 mm 0.00 in0.0 mm
08:30 AM 68.8°F20.4°C 57.0°F13.9°C 66% 4.0 mph WSW6.4 kmh WSW 9.0 mph14.5 kmh 30.02 in1016.6 mb 0.00 in0.0 mm 0.00 in0.0 mm 0.00 in0.0 mm
08:35 AM 69.1°F20.6°C 57.3°F14.1°C 66% 6.0 mph SW9.7 kmh SW 12.0 mph19.3 kmh 30.02 in1016.6 mb 0.00 in0.0 mm 0.00 in0.0 mm 0.00 in0.0 mm
08:40 AM 69.0°F20.6°C 56.7°F13.7°C 65% 4.0 mph SW6.4 kmh SW 10.0 mph16.1 kmh 30.02 in1016.6 mb 0.00 in0.0 mm 0.00 in0.0 mm 0.00 in0.0 mm
08:45 AM 69.1°F20.6°C 56.8°F13.8°C 65% 4.0 mph WSW6.4 kmh WSW 12.0 mph19.3 kmh 30.02 in1016.6 mb 0.00 in0.0 mm 0.00 in0.0 mm 0.00 in0.0 mm
08:50 AM 69.4°F20.8°C 56.7°F13.7°C 64% 2.0 mph S3.2 kmh S 9.0 mph14.5 kmh 30.02 in1016.6 mb 0.00 in0.0 mm 0.00 in0.0 mm 0.00 in0.0 mm
08:55 AM 69.6°F20.9°C 56.0°F13.3°C 62% 3.0 mph WSW4.8 kmh WSW 9.0 mph14.5 kmh 30.02 in1016.6 mb 0.00 in0.0 mm 0.00 in0.0 mm 0.00 in0.0 mm
09:00 AM 69.8°F21.0°C 56.2°F13.4°C 62% 4.0 mph WSW6.4 kmh WSW 10.0 mph16.1 kmh 30.02 in1016.6 mb 0.00 in0.0 mm 0.00 in0.0 mm 0.00 in0.0 mm
09:05 AM 70.0°F21.1°C 55.9°F13.3°C 61% 5.0 mph WSW8.0 kmh WSW 10.0 mph16.1 kmh 30.02 in1016.6 mb 0.00 in0.0 mm 0.00 in0.0 mm 0.00 in0.0 mm
09:10 AM 70.2°F21.2°C 55.7°F13.2°C 60% 3.0 mph WSW4.8 kmh WSW 7.0 mph11.3 kmh 30.02 in1016.6 mb 0.00 in0.0 mm 0.00 in0.0 mm 0.00 in0.0 mm
09:15 AM 67.3°F19.6°C 56.8°F13.8°C 69% 5.1 mph WSW8.2 kmh WSW 10.0 mph16.1 kmh 30.02 in1016.6 mb 0.00 in0.0 mm 0.00 in0.0 mm 0.00 in0.0 mm
09:20 AM 70.9°F21.6°C 56.3°F13.5°C 60% 3.0 mph S4.8 kmh S 12.0 mph19.3 kmh 30.00 in1015.9 mb 0.00 in0.0 mm 0.00 in0.0 mm 0.00 in0.0 mm
09:25 AM 70.9°F21.6°C 55.8°F13.2°C 59% 3.0 mph WSW4.8 kmh WSW 7.0 mph11.3 kmh 30.00 in1015.9 mb 0.00 in0.0 mm 0.00 in0.0 mm 0.00 in0.0 mm
09:30 AM 71.5°F21.9°C 56.9°F13.8°C 60% 2.0 mph SW3.2 kmh SW 7.0 mph11.3 kmh 30.00 in1015.9 mb 0.00 in0.0 mm 0.00 in0.0 mm 0.00 in0.0 mm
09:35 AM 71.3°F21.8°C 55.7°F13.2°C 58% 4.0 mph WSW6.4 kmh WSW 9.0 mph14.5 kmh 30.00 in1015.9 mb 0.00 in0.0 mm 0.00 in0.0 mm 0.00 in0.0 mm
09:40 AM 71.4°F21.9°C 55.8°F13.2°C 58% 5.0 mph WSW8.0 kmh WSW 14.0 mph22.5 kmh 30.00 in1015.9 mb 0.00 in0.0 mm 0.00 in0.0 mm 0.00 in0.0 mm
09:45 AM 71.6°F22.0°C 56.5°F13.6°C 59% 7.0 mph WSW11.3 kmh WSW 19.0 mph30.6 kmh 30.02 in1016.6 mb 0.00 in0.0 mm 0.00 in0.0 mm 0.00 in0.0 mm
09:50 AM 71.7°F22.1°C 55.2°F12.9°C 56% 6.0 mph SW9.7 kmh SW 15.0 mph24.1 kmh 30.02 in1016.6 mb 0.00 in0.0 mm 0.00 in0.0 mm 0.00 in0.0 mm
09:55 AM 72.5°F22.5°C 56.9°F13.8°C 58% 4.0 mph WSW6.4 kmh WSW 13.0 mph20.9 kmh 30.02 in1016.6 mb 0.00 in0.0 mm 0.00 in0.0 mm 0.00 in0.0 mm
10:00 AM 72.7°F22.6°C 55.1°F12.8°C 54% 5.0 mph WSW8.0 kmh WSW 9.0 mph14.5 kmh 30.02 in1016.6 mb 0.00 in0.0 mm 0.00 in0.0 mm 0.00 in0.0 mm
10:05 AM 72.6°F22.6°C 55.5°F13.1°C 55% 5.0 mph W8.0 kmh W 12.0 mph19.3 kmh 30.02 in1016.6 mb 0.00 in0.0 mm 0.00 in0.0 mm 0.00 in0.0 mm
10:10 AM 73.9°F23.3°C 56.2°F13.4°C 54% 1.0 mph S1.6 kmh S 10.0 mph16.1 kmh 30.02 in1016.6 mb 0.00 in0.0 mm 0.00 in0.0 mm 0.00 in0.0 mm
10:15 AM 73.8°F23.2°C 56.1°F13.4°C 54% 5.0 mph SW8.0 kmh SW 9.0 mph14.5 kmh 30.01 in1016.3 mb 0.00 in0.0 mm 0.00 in0.0 mm 0.00 in0.0 mm
10:20 AM 73.2°F22.9°C 56.0°F13.3°C 55% 6.0 mph WSW9.7 kmh WSW 14.0 mph22.5 kmh 30.01 in1016.3 mb 0.00 in0.0 mm 0.00 in0.0 mm 0.00 in0.0 mm
10:25 AM 73.4°F23.0°C 55.7°F13.2°C 54% 4.0 mph SW6.4 kmh SW 9.0 mph14.5 kmh 30.01 in1016.3 mb 0.00 in0.0 mm 0.00 in0.0 mm 0.00 in0.0 mm
10:30 AM 74.0°F23.3°C 55.8°F13.2°C 53% 3.0 mph SSW4.8 kmh SSW 12.0 mph19.3 kmh 30.00 in1015.9 mb 0.00 in0.0 mm 0.00 in0.0 mm 0.00 in0.0 mm
10:35 AM 74.5°F23.6°C 56.2°F13.4°C 53% 3.0 mph WSW4.8 kmh WSW 11.0 mph17.7 kmh 30.00 in1015.9 mb 0.00 in0.0 mm 0.00 in0.0 mm 0.00 in0.0 mm
10:40 AM 74.5°F23.6°C 56.2°F13.4°C 53% 2.0 mph WSW3.2 kmh WSW 10.0 mph16.1 kmh 30.00 in1015.9 mb 0.00 in0.0 mm 0.00 in0.0 mm 0.00 in0.0 mm
10:45 AM 74.4°F23.6°C 55.6°F13.1°C 52% 5.0 mph WSW8.0 kmh WSW 10.0 mph16.1 kmh 29.99 in1015.6 mb 0.00 in0.0 mm 0.00 in0.0 mm 0.00 in0.0 mm
10:50 AM 74.2°F23.4°C 55.4°F13.0°C 52% 6.0 mph WSW9.7 kmh WSW 11.0 mph17.7 kmh 29.99 in1015.6 mb 0.00 in0.0 mm 0.00 in0.0 mm 0.00 in0.0 mm
10:55 AM 74.5°F23.6°C 55.2°F12.9°C 51% 4.0 mph WSW6.4 kmh WSW 12.0 mph19.3 kmh 29.99 in1015.6 mb 0.00 in0.0 mm 0.00 in0.0 mm 0.00 in0.0 mm
11:00 AM 74.6°F23.7°C 55.3°F12.9°C 51% 5.0 mph SW8.0 kmh SW 12.0 mph19.3 kmh 29.99 in1015.6 mb 0.00 in0.0 mm 0.00 in0.0 mm 0.00 in0.0 mm
11:05 AM 75.1°F23.9°C 54.6°F12.6°C 49% 2.0 mph SW3.2 kmh SW 9.0 mph14.5 kmh 29.99 in1015.6 mb 0.00 in0.0 mm 0.00 in0.0 mm 0.00 in0.0 mm
11:10 AM 75.4°F24.1°C 54.9°F12.7°C 49% 3.0 mph WSW4.8 kmh WSW 8.0 mph12.9 kmh 29.99 in1015.6 mb 0.00 in0.0 mm 0.00 in0.0 mm 0.00 in0.0 mm
11:15 AM 75.8°F24.3°C 54.1°F12.3°C 47% 2.0 mph WSW3.2 kmh WSW 9.0 mph14.5 kmh 29.99 in1015.6 mb 0.00 in0.0 mm 0.00 in0.0 mm 0.00 in0.0 mm
11:20 AM 75.4°F24.1°C 54.3°F12.4°C 48% 2.0 mph SW3.2 kmh SW 9.0 mph14.5 kmh 29.99 in1015.6 mb 0.00 in0.0 mm 0.00 in0.0 mm 0.00 in0.0 mm
12:25 PM 75.3°F24.1°C 54.8°F12.7°C 49% 2.9 mph SW4.7 kmh SW 14.0 mph22.5 kmh 29.99 in1015.6 mb 0.00 in0.0 mm 0.00 in0.0 mm 0.00 in0.0 mm
12:30 PM 75.3°F24.1°C 53.7°F12.1°C 47% 4.3 mph SW6.9 kmh SW 23.0 mph37.0 kmh 30.00 in1015.9 mb 0.00 in0.0 mm 0.00 in0.0 mm 0.00 in0.0 mm
12:35 PM 75.1°F23.9°C 53.5°F11.9°C 47% 2.7 mph SW4.3 kmh SW 23.0 mph37.0 kmh 30.00 in1015.9 mb 0.00 in0.0 mm 0.00 in0.0 mm 0.00 in0.0 mm
12:40 PM 75.6°F24.2°C 54.5°F12.5°C 48% 2.1 mph SSW3.4 kmh SSW 11.0 mph17.7 kmh 30.00 in1015.9 mb 0.00 in0.0 mm 0.00 in0.0 mm 0.00 in0.0 mm
12:45 PM 75.6°F24.2°C 54.5°F12.5°C 48% 3.2 mph SW5.1 kmh SW 17.0 mph27.4 kmh 29.99 in1015.6 mb 0.00 in0.0 mm 0.00 in0.0 mm 0.00 in0.0 mm
12:50 PM 75.6°F24.2°C 53.9°F12.2°C 47% 2.8 mph SW4.5 kmh SW 17.0 mph27.4 kmh 29.99 in1015.6 mb 0.00 in0.0 mm 0.00 in0.0 mm 0.00 in0.0 mm
12:55 PM 75.7°F24.3°C 54.6°F12.6°C 48% 4.1 mph SW6.6 kmh SW 11.0 mph17.7 kmh 29.99 in1015.6 mb 0.00 in0.0 mm 0.00 in0.0 mm 0.00 in0.0 mm
01:00 PM 76.0°F24.4°C 54.9°F12.7°C 48% 4.4 mph SW7.1 kmh SW 11.0 mph17.7 kmh 29.99 in1015.6 mb 0.00 in0.0 mm 0.00 in0.0 mm 0.00 in0.0 mm
01:05 PM 75.6°F24.2°C 53.9°F12.2°C 47% 4.2 mph SW6.8 kmh SW 13.0 mph20.9 kmh 29.99 in1015.6 mb 0.00 in0.0 mm 0.00 in0.0 mm 0.00 in0.0 mm
01:10 PM 75.8°F24.3°C 54.7°F12.6°C 48% 4.4 mph SW7.1 kmh SW 13.0 mph20.9 kmh 29.99 in1015.6 mb 0.00 in0.0 mm 0.00 in0.0 mm 0.00 in0.0 mm
01:15 PM 75.6°F24.2°C 53.9°F12.2°C 47% 3.5 mph SSW5.6 kmh SSW 13.0 mph20.9 kmh 29.99 in1015.6 mb 0.00 in0.0 mm 0.00 in0.0 mm 0.00 in0.0 mm
01:20 PM 75.7°F24.3°C 54.0°F12.2°C 47% 3.9 mph SW6.3 kmh SW 12.0 mph19.3 kmh 29.99 in1015.6 mb 0.00 in0.0 mm 0.00 in0.0 mm 0.00 in0.0 mm
01:25 PM 76.0°F24.4°C 54.3°F12.4°C 47% 3.3 mph SW5.3 kmh SW 14.0 mph22.5 kmh 29.99 in1015.6 mb 0.00 in0.0 mm 0.00 in0.0 mm 0.00 in0.0 mm
01:30 PM 76.3°F24.6°C 52.8°F11.6°C 44% 2.8 mph SW4.5 kmh SW 14.0 mph22.5 kmh 29.99 in1015.6 mb 0.00 in0.0 mm 0.00 in0.0 mm 0.00 in0.0 mm
01:35 PM 76.4°F24.7°C 55.2°F12.9°C 48% 4.6 mph SW7.4 kmh SW 14.0 mph22.5 kmh 29.99 in1015.6 mb 0.00 in0.0 mm 0.00 in0.0 mm 0.00 in0.0 mm
01:40 PM 76.6°F24.8°C 54.8°F12.7°C 47% 3.2 mph SW5.1 kmh SW 11.0 mph17.7 kmh 29.99 in1015.6 mb 0.00 in0.0 mm 0.00 in0.0 mm 0.00 in0.0 mm
01:45 PM 76.5°F24.7°C 54.2°F12.3°C 46% 4.4 mph SW7.1 kmh SW 14.0 mph22.5 kmh 29.99 in1015.6 mb 0.00 in0.0 mm 0.00 in0.0 mm 0.00 in0.0 mm
01:50 PM 75.5°F24.2°C 55.0°F12.8°C 49% 5.4 mph SW8.7 kmh SW 14.0 mph22.5 kmh 29.99 in1015.6 mb 0.00 in0.0 mm 0.00 in0.0 mm 0.00 in0.0 mm
01:55 PM 74.8°F23.8°C 54.3°F12.4°C 49% 6.4 mph SW10.3 kmh SW 17.0 mph27.4 kmh 29.99 in1015.6 mb 0.00 in0.0 mm 0.00 in0.0 mm 0.00 in0.0 mm
02:00 PM 75.3°F24.1°C 53.7°F12.1°C 47% 3.1 mph SW5.0 kmh SW 17.0 mph27.4 kmh 29.98 in1015.2 mb 0.00 in0.0 mm 0.00 in0.0 mm 0.00 in0.0 mm
02:05 PM 75.5°F24.2°C 53.8°F12.1°C 47% 5.9 mph SW9.5 kmh SW 16.0 mph25.7 kmh 29.98 in1015.2 mb 0.00 in0.0 mm 0.00 in0.0 mm 0.00 in0.0 mm
02:10 PM 75.8°F24.3°C 53.5°F11.9°C 46% 3.9 mph SW6.3 kmh SW 16.0 mph25.7 kmh 29.98 in1015.2 mb 0.00 in0.0 mm 0.00 in0.0 mm 0.00 in0.0 mm
02:15 PM 75.8°F24.3°C 53.5°F11.9°C 46% 3.9 mph SW6.3 kmh SW 12.0 mph19.3 kmh 29.98 in1015.2 mb 0.00 in0.0 mm 0.00 in0.0 mm 0.00 in0.0 mm
02:20 PM 75.2°F24.0°C 53.6°F12.0°C 47% 9.4 mph WSW15.1 kmh WSW 21.0 mph33.8 kmh 29.98 in1015.2 mb 0.00 in0.0 mm 0.00 in0.0 mm 0.00 in0.0 mm
02:25 PM 75.3°F24.1°C 53.1°F11.7°C 46% 5.0 mph SW8.0 kmh SW 21.0 mph33.8 kmh 29.98 in1015.2 mb 0.00 in0.0 mm 0.00 in0.0 mm 0.00 in0.0 mm
02:30 PM 75.4°F24.1°C 54.3°F12.4°C 48% 4.1 mph SW6.6 kmh SW 11.0 mph17.7 kmh 29.97 in1014.9 mb 0.00 in0.0 mm 0.00 in0.0 mm 0.00 in0.0 mm
02:35 PM 75.5°F24.2°C 53.3°F11.8°C 46% 6.9 mph WSW11.1 kmh WSW 16.0 mph25.7 kmh 29.97 in1014.9 mb 0.00 in0.0 mm 0.00 in0.0 mm 0.00 in0.0 mm
02:40 PM 76.1°F24.5°C 53.2°F11.8°C 45% 4.3 mph SW6.9 kmh SW 16.0 mph25.7 kmh 29.97 in1014.9 mb 0.00 in0.0 mm 0.00 in0.0 mm 0.00 in0.0 mm
02:45 PM 75.3°F24.1°C 53.1°F11.7°C 46% 7.7 mph SW12.4 kmh SW 17.0 mph27.4 kmh 29.97 in1014.9 mb 0.00 in0.0 mm 0.00 in0.0 mm 0.00 in0.0 mm
02:50 PM 75.4°F24.1°C 53.2°F11.8°C 46% 7.3 mph SW11.7 kmh SW 17.0 mph27.4 kmh 29.97 in1014.9 mb 0.00 in0.0 mm 0.00 in0.0 mm 0.00 in0.0 mm
02:55 PM 75.2°F24.0°C 53.6°F12.0°C 47% 6.9 mph SW11.1 kmh SW 16.0 mph25.7 kmh 29.97 in1014.9 mb 0.00 in0.0 mm 0.00 in0.0 mm 0.00 in0.0 mm
03:00 PM 75.7°F24.3°C 54.0°F12.2°C 47% 5.7 mph SW9.2 kmh SW 15.0 mph24.1 kmh 29.97 in1014.9 mb 0.00 in0.0 mm 0.00 in0.0 mm 0.00 in0.0 mm
03:05 PM 75.4°F24.1°C 52.6°F11.4°C 45% 7.3 mph SW11.7 kmh SW 15.0 mph24.1 kmh 29.97 in1014.9 mb 0.00 in0.0 mm 0.00 in0.0 mm 0.00 in0.0 mm
03:10 PM 75.1°F23.9°C 52.3°F11.3°C 45% 6.5 mph SW10.5 kmh SW 14.0 mph22.5 kmh 29.97 in1014.9 mb 0.00 in0.0 mm 0.00 in0.0 mm 0.00 in0.0 mm
03:15 PM 75.3°F24.1°C 53.1°F11.7°C 46% 6.0 mph SW9.7 kmh SW 19.0 mph30.6 kmh 29.96 in1014.6 mb 0.00 in0.0 mm 0.00 in0.0 mm 0.00 in0.0 mm
03:20 PM 74.7°F23.7°C 51.9°F11.1°C 45% 7.6 mph SW12.2 kmh SW 19.0 mph30.6 kmh 29.96 in1014.6 mb 0.00 in0.0 mm 0.00 in0.0 mm 0.00 in0.0 mm
03:25 PM 74.6°F23.7°C 52.4°F11.3°C 46% 5.4 mph SW8.7 kmh SW 16.0 mph25.7 kmh 29.96 in1014.6 mb 0.00 in0.0 mm 0.00 in0.0 mm 0.00 in0.0 mm
03:30 PM 75.1°F23.9°C 52.9°F11.6°C 46% 5.8 mph SW9.3 kmh SW 15.0 mph24.1 kmh 29.96 in1014.6 mb 0.00 in0.0 mm 0.00 in0.0 mm 0.00 in0.0 mm
03:35 PM 74.8°F23.8°C 52.6°F11.4°C 46% 8.0 mph SW12.9 kmh SW 16.0 mph25.7 kmh 29.96 in1014.6 mb 0.00 in0.0 mm 0.00 in0.0 mm 0.00 in0.0 mm
03:40 PM 74.5°F23.6°C 52.9°F11.6°C 47% 6.1 mph SW9.8 kmh SW 16.0 mph25.7 kmh 29.96 in1014.6 mb 0.00 in0.0 mm 0.00 in0.0 mm 0.00 in0.0 mm
03:45 PM 74.0°F23.3°C 51.9°F11.1°C 46% 4.1 mph SW6.6 kmh SW 16.0 mph25.7 kmh 29.96 in1014.6 mb 0.00 in0.0 mm 0.00 in0.0 mm 0.00 in0.0 mm
03:50 PM 74.9°F23.8°C 52.7°F11.5°C 46% 5.9 mph SW9.5 kmh SW 16.0 mph25.7 kmh 29.96 in1014.6 mb 0.00 in0.0 mm 0.00 in0.0 mm 0.00 in0.0 mm
03:55 PM 74.5°F23.6°C 52.9°F11.6°C 47% 9.4 mph SW15.1 kmh SW 17.0 mph27.4 kmh 29.96 in1014.6 mb 0.00 in0.0 mm 0.00 in0.0 mm 0.00 in0.0 mm
04:00 PM 74.0°F23.3°C 52.5°F11.4°C 47% 6.5 mph SW10.5 kmh SW 17.0 mph27.4 kmh 29.95 in1014.2 mb 0.00 in0.0 mm 0.00 in0.0 mm 0.00 in0.0 mm
04:05 PM 73.1°F22.8°C 51.7°F10.9°C 47% 7.5 mph SW12.1 kmh SW 15.0 mph24.1 kmh 29.95 in1014.2 mb 0.00 in0.0 mm 0.00 in0.0 mm 0.00 in0.0 mm
04:10 PM 74.0°F23.3°C 51.9°F11.1°C 46% 6.1 mph SW9.8 kmh SW 15.0 mph24.1 kmh 29.95 in1014.2 mb 0.00 in0.0 mm 0.00 in0.0 mm 0.00 in0.0 mm
04:15 PM 74.3°F23.5°C 52.2°F11.2°C 46% 6.2 mph SW10.0 kmh SW 15.0 mph24.1 kmh 29.95 in1014.2 mb 0.00 in0.0 mm 0.00 in0.0 mm 0.00 in0.0 mm
04:20 PM 74.0°F23.3°C 52.5°F11.4°C 47% 9.9 mph SW15.9 kmh SW 18.0 mph29.0 kmh 29.95 in1014.2 mb 0.00 in0.0 mm 0.00 in0.0 mm 0.00 in0.0 mm
04:25 PM 73.9°F23.3°C 53.0°F11.7°C 48% 5.3 mph SW8.5 kmh SW 18.0 mph29.0 kmh 29.95 in1014.2 mb 0.00 in0.0 mm 0.00 in0.0 mm 0.00 in0.0 mm
04:30 PM 73.4°F23.0°C 51.9°F11.1°C 47% 6.8 mph SW10.9 kmh SW 15.0 mph24.1 kmh 29.95 in1014.2 mb 0.00 in0.0 mm 0.00 in0.0 mm 0.00 in0.0 mm
04:35 PM 72.7°F22.6°C 52.4°F11.3°C 49% 8.4 mph SW13.5 kmh SW 15.0 mph24.1 kmh 29.95 in1014.2 mb 0.00 in0.0 mm 0.00 in0.0 mm 0.00 in0.0 mm
04:40 PM 73.0°F22.8°C 53.2°F11.8°C 50% 3.8 mph SW6.1 kmh SW 15.0 mph24.1 kmh 29.95 in1014.2 mb 0.00 in0.0 mm 0.00 in0.0 mm 0.00 in0.0 mm
04:45 PM 73.3°F22.9°C 53.0°F11.7°C 49% 4.8 mph SW7.7 kmh SW 13.0 mph20.9 kmh 29.96 in1014.6 mb 0.00 in0.0 mm 0.00 in0.0 mm 0.00 in0.0 mm
04:50 PM 73.1°F22.8°C 52.8°F11.6°C 49% 9.1 mph SW14.6 kmh SW 17.0 mph27.4 kmh 29.96 in1014.6 mb 0.00 in0.0 mm 0.00 in0.0 mm 0.00 in0.0 mm
04:55 PM 73.9°F23.3°C 54.1°F12.3°C 50% 4.9 mph SW7.9 kmh SW 17.0 mph27.4 kmh 29.96 in1014.6 mb 0.00 in0.0 mm 0.00 in0.0 mm 0.00 in0.0 mm
05:00 PM 73.9°F23.3°C 54.1°F12.3°C 50% 5.1 mph SW8.2 kmh SW 17.0 mph27.4 kmh 29.96 in1014.6 mb 0.00 in0.0 mm 0.00 in0.0 mm 0.00 in0.0 mm
05:05 PM 73.3°F22.9°C 53.5°F11.9°C 50% 4.9 mph SW7.9 kmh SW 14.0 mph22.5 kmh 29.96 in1014.6 mb 0.00 in0.0 mm 0.00 in0.0 mm 0.00 in0.0 mm
05:10 PM 72.9°F22.7°C 53.2°F11.8°C 50% 4.8 mph SW7.7 kmh SW 12.0 mph19.3 kmh 29.96 in1014.6 mb 0.00 in0.0 mm 0.00 in0.0 mm 0.00 in0.0 mm
05:15 PM 71.8°F22.1°C 53.2°F11.8°C 52% 7.3 mph SW11.7 kmh SW 15.0 mph24.1 kmh 29.96 in1014.6 mb 0.00 in0.0 mm 0.00 in0.0 mm 0.00 in0.0 mm
05:20 PM 71.4°F21.9°C 53.4°F11.9°C 53% 7.2 mph SW11.6 kmh SW 15.0 mph24.1 kmh 29.96 in1014.6 mb 0.00 in0.0 mm 0.00 in0.0 mm 0.00 in0.0 mm
05:25 PM 71.2°F21.8°C 53.7°F12.1°C 54% 5.1 mph SW8.2 kmh SW 14.0 mph22.5 kmh 29.96 in1014.6 mb 0.00 in0.0 mm 0.00 in0.0 mm 0.00 in0.0 mm
05:30 PM 71.2°F21.8°C 52.7°F11.5°C 52% 5.2 mph SW8.4 kmh SW 18.0 mph29.0 kmh 29.96 in1014.6 mb 0.00 in0.0 mm 0.00 in0.0 mm 0.00 in0.0 mm
05:35 PM 70.9°F21.6°C 53.4°F11.9°C 54% 5.0 mph SW8.0 kmh SW 18.0 mph29.0 kmh 29.96 in1014.6 mb 0.00 in0.0 mm 0.00 in0.0 mm 0.00 in0.0 mm
05:40 PM 71.3°F21.8°C 53.3°F11.8°C 53% 5.3 mph SW8.5 kmh SW 14.0 mph22.5 kmh 29.96 in1014.6 mb 0.00 in0.0 mm 0.00 in0.0 mm 0.00 in0.0 mm
05:45 PM 71.7°F22.1°C 53.6°F12.0°C 53% 4.7 mph SW7.6 kmh SW 14.0 mph22.5 kmh 29.97 in1014.9 mb 0.00 in0.0 mm 0.00 in0.0 mm 0.00 in0.0 mm
05:50 PM 71.9°F22.2°C 52.8°F11.6°C 51% 5.1 mph SW8.2 kmh SW 12.0 mph19.3 kmh 29.97 in1014.9 mb 0.00 in0.0 mm 0.00 in0.0 mm 0.00 in0.0 mm
05:55 PM 71.6°F22.0°C 53.0°F11.7°C 52% 4.0 mph SW6.4 kmh SW 12.0 mph19.3 kmh 29.97 in1014.9 mb 0.00 in0.0 mm 0.00 in0.0 mm 0.00 in0.0 mm
06:00 PM 71.5°F21.9°C 52.9°F11.6°C 52% 3.6 mph SW5.8 kmh SW 12.0 mph19.3 kmh 29.97 in1014.9 mb 0.00 in0.0 mm 0.00 in0.0 mm 0.00 in0.0 mm
06:05 PM 70.9°F21.6°C 51.9°F11.1°C 51% 5.1 mph SW8.2 kmh SW 14.0 mph22.5 kmh 29.97 in1014.9 mb 0.00 in0.0 mm 0.00 in0.0 mm 0.00 in0.0 mm
06:10 PM 70.5°F21.4°C 52.0°F11.1°C 52% 4.7 mph SW7.6 kmh SW 14.0 mph22.5 kmh 29.97 in1014.9 mb 0.00 in0.0 mm 0.00 in0.0 mm 0.00 in0.0 mm
06:15 PM 70.1°F21.2°C 51.6°F10.9°C 52% 3.5 mph SW5.6 kmh SW 11.0 mph17.7 kmh 29.98 in1015.2 mb 0.00 in0.0 mm 0.00 in0.0 mm 0.00 in0.0 mm
06:20 PM 69.9°F21.1°C 52.0°F11.1°C 53% 2.8 mph SW4.5 kmh SW 11.0 mph17.7 kmh 29.98 in1015.2 mb 0.00 in0.0 mm 0.00 in0.0 mm 0.00 in0.0 mm
06:25 PM 69.8°F21.0°C 52.4°F11.3°C 54% 2.9 mph SW4.7 kmh SW 12.0 mph19.3 kmh 29.98 in1015.2 mb 0.00 in0.0 mm 0.00 in0.0 mm 0.00 in0.0 mm
06:30 PM 69.4°F20.8°C 51.5°F10.8°C 53% 2.8 mph SW4.5 kmh SW 12.0 mph19.3 kmh 29.98 in1015.2 mb 0.00 in0.0 mm 0.00 in0.0 mm 0.00 in0.0 mm
06:35 PM 69.0°F20.6°C 51.7°F10.9°C 54% 2.1 mph SW3.4 kmh SW 12.0 mph19.3 kmh 29.98 in1015.2 mb 0.00 in0.0 mm 0.00 in0.0 mm 0.00 in0.0 mm
06:40 PM 68.8°F20.4°C 51.5°F10.8°C 54% 3.9 mph SW6.3 kmh SW 12.0 mph19.3 kmh 29.98 in1015.2 mb 0.00 in0.0 mm 0.00 in0.0 mm 0.00 in0.0 mm
06:45 PM 68.5°F20.3°C 51.2°F10.7°C 54% 3.7 mph SW6.0 kmh SW 11.0 mph17.7 kmh 29.98 in1015.2 mb 0.00 in0.0 mm 0.00 in0.0 mm 0.00 in0.0 mm
06:50 PM 68.3°F20.2°C 51.5°F10.8°C 55% 2.7 mph SW4.3 kmh SW 11.0 mph17.7 kmh 29.98 in1015.2 mb 0.00 in0.0 mm 0.00 in0.0 mm 0.00 in0.0 mm
06:55 PM 68.1°F20.1°C 51.3°F10.7°C 55% 3.2 mph SW5.1 kmh SW 13.0 mph20.9 kmh 29.98 in1015.2 mb 0.00 in0.0 mm 0.00 in0.0 mm 0.00 in0.0 mm
07:00 PM 67.8°F19.9°C 51.5°F10.8°C 56% 3.3 mph SW5.3 kmh SW 14.0 mph22.5 kmh 29.99 in1015.6 mb 0.00 in0.0 mm 0.00 in0.0 mm 0.00 in0.0 mm
07:05 PM 67.7°F19.8°C 51.9°F11.1°C 57% 2.7 mph SW4.3 kmh SW 14.0 mph22.5 kmh 29.99 in1015.6 mb 0.00 in0.0 mm 0.00 in0.0 mm 0.00 in0.0 mm
07:10 PM 67.6°F19.8°C 50.8°F10.4°C 55% 3.0 mph SW4.8 kmh SW 10.0 mph16.1 kmh 29.99 in1015.6 mb 0.00 in0.0 mm 0.00 in0.0 mm 0.00 in0.0 mm
07:15 PM 67.4°F19.7°C 51.2°F10.7°C 56% 2.3 mph SW3.7 kmh SW 10.0 mph16.1 kmh 29.99 in1015.6 mb 0.00 in0.0 mm 0.00 in0.0 mm 0.00 in0.0 mm
07:20 PM 67.2°F19.6°C 51.0°F10.6°C 56% 1.4 mph SW2.3 kmh SW 8.0 mph12.9 kmh 29.99 in1015.6 mb 0.00 in0.0 mm 0.00 in0.0 mm 0.00 in0.0 mm
07:25 PM 67.0°F19.4°C 50.8°F10.4°C 56% 1.7 mph SSW2.7 kmh SSW 8.0 mph12.9 kmh 29.99 in1015.6 mb 0.00 in0.0 mm 0.00 in0.0 mm 0.00 in0.0 mm
07:30 PM 66.9°F19.4°C 51.6°F10.9°C 58% 1.5 mph SSW2.4 kmh SSW 10.0 mph16.1 kmh 30.00 in1015.9 mb 0.00 in0.0 mm 0.00 in0.0 mm 0.00 in0.0 mm
07:35 PM 66.8°F19.3°C 51.5°F10.8°C 58% 1.9 mph SW3.1 kmh SW 12.0 mph19.3 kmh 30.00 in1015.9 mb 0.00 in0.0 mm 0.00 in0.0 mm 0.00 in0.0 mm
07:40 PM 66.7°F19.3°C 51.0°F10.6°C 57% 1.9 mph SSW3.1 kmh SSW 12.0 mph19.3 kmh 30.00 in1015.9 mb 0.00 in0.0 mm 0.00 in0.0 mm 0.00 in0.0 mm
07:45 PM 66.7°F19.3°C 51.4°F10.8°C 58% 2.0 mph SSW3.2 kmh SSW 11.0 mph17.7 kmh 30.01 in1016.3 mb 0.00 in0.0 mm 0.00 in0.0 mm 0.00 in0.0 mm
07:50 PM 66.5°F19.2°C 50.8°F10.4°C 57% 1.8 mph SW2.9 kmh SW 15.0 mph24.1 kmh 30.01 in1016.3 mb 0.00 in0.0 mm 0.00 in0.0 mm 0.00 in0.0 mm
07:55 PM 66.4°F19.1°C 51.2°F10.7°C 58% 2.3 mph SW3.7 kmh SW 15.0 mph24.1 kmh 30.01 in1016.3 mb 0.00 in0.0 mm 0.00 in0.0 mm 0.00 in0.0 mm
08:00 PM 66.2°F19.0°C 51.0°F10.6°C 58% 1.4 mph SW2.3 kmh SW 11.0 mph17.7 kmh 30.02 in1016.6 mb 0.00 in0.0 mm 0.00 in0.0 mm 0.00 in0.0 mm
08:05 PM 66.1°F18.9°C 50.9°F10.5°C 58% 1.4 mph SW2.3 kmh SW 11.0 mph17.7 kmh 30.02 in1016.6 mb 0.00 in0.0 mm 0.00 in0.0 mm 0.00 in0.0 mm
08:10 PM 65.9°F18.8°C 50.7°F10.4°C 58% 1.8 mph SSW2.9 kmh SSW 12.0 mph19.3 kmh 30.02 in1016.6 mb 0.00 in0.0 mm 0.00 in0.0 mm 0.00 in0.0 mm
08:15 PM 65.7°F18.7°C 51.0°F10.6°C 59% 1.7 mph SW2.7 kmh SW 12.0 mph19.3 kmh 30.02 in1016.6 mb 0.00 in0.0 mm 0.00 in0.0 mm 0.00 in0.0 mm
08:20 PM 65.6°F18.7°C 50.9°F10.5°C 59% 2.1 mph SW3.4 kmh SW 11.0 mph17.7 kmh 30.02 in1016.6 mb 0.00 in0.0 mm 0.00 in0.0 mm 0.00 in0.0 mm
08:25 PM 65.5°F18.6°C 50.8°F10.4°C 59% 3.2 mph SSW5.1 kmh SSW 12.0 mph19.3 kmh 30.02 in1016.6 mb 0.00 in0.0 mm 0.00 in0.0 mm 0.00 in0.0 mm
08:30 PM 65.4°F18.6°C 51.1°F10.6°C 60% 2.8 mph SSW4.5 kmh SSW 12.0 mph19.3 kmh 30.02 in1016.6 mb 0.00 in0.0 mm 0.00 in0.0 mm 0.00 in0.0 mm
08:35 PM 65.3°F18.5°C 51.5°F10.8°C 61% 2.4 mph SSW3.9 kmh SSW 13.0 mph20.9 kmh 30.02 in1016.6 mb 0.00 in0.0 mm 0.00 in0.0 mm 0.00 in0.0 mm
08:40 PM 64.9°F18.3°C 50.7°F10.4°C 60% 0.9 mph SW1.4 kmh SW 13.0 mph20.9 kmh 30.02 in1016.6 mb 0.00 in0.0 mm 0.00 in0.0 mm 0.00 in0.0 mm
08:45 PM 64.7°F18.2°C 50.9°F10.5°C 61% 1.5 mph SW2.4 kmh SW 9.0 mph14.5 kmh 30.03 in1016.9 mb 0.00 in0.0 mm 0.00 in0.0 mm 0.00 in0.0 mm
08:50 PM 64.5°F18.1°C 51.2°F10.7°C 62% 0.6 mph SW1.0 kmh SW 9.0 mph14.5 kmh 30.03 in1016.9 mb 0.00 in0.0 mm 0.00 in0.0 mm 0.00 in0.0 mm
08:55 PM 64.3°F17.9°C 51.9°F11.1°C 64% 1.3 mph SW2.1 kmh SW 5.0 mph8.0 kmh 30.03 in1016.9 mb 0.00 in0.0 mm 0.00 in0.0 mm 0.00 in0.0 mm
09:00 PM 64.1°F17.8°C 51.7°F10.9°C 64% 2.2 mph SW3.5 kmh SW 7.0 mph11.3 kmh 30.04 in1017.3 mb 0.00 in0.0 mm 0.00 in0.0 mm 0.00 in0.0 mm
09:05 PM 63.9°F17.7°C 52.3°F11.3°C 66% 1.6 mph SW2.6 kmh SW 12.0 mph19.3 kmh 30.04 in1017.3 mb 0.00 in0.0 mm 0.00 in0.0 mm 0.00 in0.0 mm
09:10 PM 63.6°F17.6°C 52.0°F11.1°C 66% 1.3 mph SW2.1 kmh SW 12.0 mph19.3 kmh 30.04 in1017.3 mb 0.00 in0.0 mm 0.00 in0.0 mm 0.00 in0.0 mm
09:15 PM 63.6°F17.6°C 52.4°F11.3°C 67% 1.0 mph SSW1.6 kmh SSW 8.0 mph12.9 kmh 30.04 in1017.3 mb 0.00 in0.0 mm 0.00 in0.0 mm 0.00 in0.0 mm
09:20 PM 63.5°F17.5°C 52.7°F11.5°C 68% 1.2 mph SW1.9 kmh SW 8.0 mph12.9 kmh 30.04 in1017.3 mb 0.00 in0.0 mm 0.00 in0.0 mm 0.00 in0.0 mm
09:25 PM 63.4°F17.4°C 53.0°F11.7°C 69% 1.2 mph SSW1.9 kmh SSW 7.0 mph11.3 kmh 30.04 in1017.3 mb 0.00 in0.0 mm 0.00 in0.0 mm 0.00 in0.0 mm
09:30 PM 63.3°F17.4°C 52.6°F11.4°C 68% 1.1 mph SSW1.8 kmh SSW 8.0 mph12.9 kmh 30.05 in1017.6 mb 0.00 in0.0 mm 0.00 in0.0 mm 0.00 in0.0 mm
09:35 PM 63.3°F17.4°C 52.6°F11.4°C 68% 0.9 mph SSW1.4 kmh SSW 9.0 mph14.5 kmh 30.05 in1017.6 mb 0.00 in0.0 mm 0.00 in0.0 mm 0.00 in0.0 mm
09:40 PM 63.3°F17.4°C 53.0°F11.7°C 69% 0.4 mph SW0.6 kmh SW 9.0 mph14.5 kmh 30.05 in1017.6 mb 0.00 in0.0 mm 0.00 in0.0 mm 0.00 in0.0 mm
09:45 PM 63.2°F17.3°C 52.9°F11.6°C 69% 0.5 mph SW0.8 kmh SW 5.0 mph8.0 kmh 30.05 in1017.6 mb 0.00 in0.0 mm 0.00 in0.0 mm 0.00 in0.0 mm
09:50 PM 63.1°F17.3°C 52.8°F11.6°C 69% 1.3 mph SW2.1 kmh SW 6.0 mph9.7 kmh 30.05 in1017.6 mb 0.00 in0.0 mm 0.00 in0.0 mm 0.00 in0.0 mm
09:55 PM 63.1°F17.3°C 53.2°F11.8°C 70% 0.8 mph SSW1.3 kmh SSW 8.0 mph12.9 kmh 30.05 in1017.6 mb 0.00 in0.0 mm 0.00 in0.0 mm 0.00 in0.0 mm
10:00 PM 63.0°F17.2°C 53.1°F11.7°C 70% 1.2 mph SW1.9 kmh SW 8.0 mph12.9 kmh 30.05 in1017.6 mb 0.00 in0.0 mm 0.00 in0.0 mm 0.00 in0.0 mm
10:05 PM 62.9°F17.2°C 53.3°F11.8°C 71% 0.5 mph WSW0.8 kmh WSW 5.0 mph8.0 kmh 30.05 in1017.6 mb 0.00 in0.0 mm 0.00 in0.0 mm 0.00 in0.0 mm
10:10 PM 62.9°F17.2°C 53.3°F11.8°C 71% 0.8 mph WSW1.3 kmh WSW 4.0 mph6.4 kmh 30.05 in1017.6 mb 0.00 in0.0 mm 0.00 in0.0 mm 0.00 in0.0 mm
10:15 PM 62.9°F17.2°C 53.3°F11.8°C 71% 0.9 mph SSW1.4 kmh SSW 6.0 mph9.7 kmh 30.05 in1017.6 mb 0.00 in0.0 mm 0.00 in0.0 mm 0.00 in0.0 mm
10:20 PM 62.8°F17.1°C 53.3°F11.8°C 71% 2.1 mph SSW3.4 kmh SSW 7.0 mph11.3 kmh 30.05 in1017.6 mb 0.00 in0.0 mm 0.00 in0.0 mm 0.00 in0.0 mm
10:25 PM 62.7°F17.1°C 53.2°F11.8°C 71% 0.9 mph SSW1.4 kmh SSW 8.0 mph12.9 kmh 30.05 in1017.6 mb 0.00 in0.0 mm 0.00 in0.0 mm 0.00 in0.0 mm
10:30 PM 62.6°F17.0°C 53.1°F11.7°C 71% 0.7 mph SSW1.1 kmh SSW 8.0 mph12.9 kmh 30.06 in1017.9 mb 0.00 in0.0 mm 0.00 in0.0 mm 0.00 in0.0 mm
10:35 PM 62.7°F17.1°C 53.2°F11.8°C 71% 1.3 mph S2.1 kmh S 9.0 mph14.5 kmh 30.06 in1017.9 mb 0.00 in0.0 mm 0.00 in0.0 mm 0.00 in0.0 mm
10:40 PM 62.6°F17.0°C 53.4°F11.9°C 72% 0.7 mph S1.1 kmh S 9.0 mph14.5 kmh 30.06 in1017.9 mb 0.00 in0.0 mm 0.00 in0.0 mm 0.00 in0.0 mm
10:45 PM 62.7°F17.1°C 53.5°F11.9°C 72% 0.9 mph S1.4 kmh S 7.0 mph11.3 kmh 30.07 in1018.3 mb 0.00 in0.0 mm 0.00 in0.0 mm 0.00 in0.0 mm
10:50 PM 62.7°F17.1°C 53.5°F11.9°C 72% 0.2 mph S0.3 kmh S 5.0 mph8.0 kmh 30.07 in1018.3 mb 0.00 in0.0 mm 0.00 in0.0 mm 0.00 in0.0 mm
10:55 PM 62.4°F16.9°C 52.9°F11.6°C 71% 0.2 mph SSE0.3 kmh SSE 3.0 mph4.8 kmh 30.07 in1018.3 mb 0.00 in0.0 mm 0.00 in0.0 mm 0.00 in0.0 mm
11:00 PM 62.3°F16.8°C 52.8°F11.6°C 71% 0.1 mph SE0.2 kmh SE 3.0 mph4.8 kmh 30.07 in1018.3 mb 0.00 in0.0 mm 0.00 in0.0 mm 0.00 in0.0 mm
11:05 PM 62.3°F16.8°C 52.8°F11.6°C 71% 0.6 mph SE1.0 kmh SE 4.0 mph6.4 kmh 30.07 in1018.3 mb 0.00 in0.0 mm 0.00 in0.0 mm 0.00 in0.0 mm
11:10 PM 62.5°F16.9°C 53.0°F11.7°C 71% 0.5 mph SSE0.8 kmh SSE 4.0 mph6.4 kmh 30.07 in1018.3 mb 0.00 in0.0 mm 0.00 in0.0 mm 0.00 in0.0 mm
11:15 PM 62.5°F16.9°C 53.0°F11.7°C 71% 0.2 mph S0.3 kmh S 4.0 mph6.4 kmh 30.07 in1018.3 mb 0.00 in0.0 mm 0.00 in0.0 mm 0.00 in0.0 mm
11:20 PM 62.6°F17.0°C 53.1°F11.7°C 71% 0.3 mph S0.5 kmh S 4.0 mph6.4 kmh 30.07 in1018.3 mb 0.00 in0.0 mm 0.00 in0.0 mm 0.00 in0.0 mm
11:25 PM 62.7°F17.1°C 53.2°F11.8°C 71% 1.4 mph S2.3 kmh S 7.0 mph11.3 kmh 30.07 in1018.3 mb 0.00 in0.0 mm 0.00 in0.0 mm 0.00 in0.0 mm
11:30 PM 62.8°F17.1°C 53.3°F11.8°C 71% 1.4 mph S2.3 kmh S 7.0 mph11.3 kmh 30.07 in1018.3 mb 0.00 in0.0 mm 0.00 in0.0 mm 0.00 in0.0 mm
11:35 PM 62.8°F17.1°C 53.3°F11.8°C 71% 1.0 mph S1.6 kmh S 7.0 mph11.3 kmh 30.07 in1018.3 mb 0.00 in0.0 mm 0.00 in0.0 mm 0.00 in0.0 mm
11:40 PM 62.8°F17.1°C 53.6°F12.0°C 72% 1.4 mph S2.3 kmh S 8.0 mph12.9 kmh 30.07 in1018.3 mb 0.00 in0.0 mm 0.00 in0.0 mm 0.00 in0.0 mm
11:45 PM 62.9°F17.2°C 53.7°F12.1°C 72% 1.2 mph S1.9 kmh S 8.0 mph12.9 kmh 30.08 in1018.6 mb 0.00 in0.0 mm 0.00 in0.0 mm 0.00 in0.0 mm
11:50 PM 62.7°F17.1°C 53.5°F11.9°C 72% 0.2 mph S0.3 kmh S 5.0 mph8.0 kmh 30.08 in1018.6 mb 0.00 in0.0 mm 0.00 in0.0 mm 0.00 in0.0 mm
11:55 PM 62.5°F16.9°C 53.0°F11.7°C 71% 0.6 mph SE1.0 kmh SE 6.0 mph9.7 kmh 30.08 in1018.6 mb 0.00 in0.0 mm 0.00 in0.0 mm 0.00 in0.0 mm